Time;durP1;ratioP1;P1;durP2;ratioP2;P2;SDS_P1;SDS_P2;PMS_P1;PMS_P2;Temp;Humidity;BMP_temperature;BMP_pressure;BME280_temperature;BME280_humidity;BME280_pressure;Samples;Min_cycle;Max_cycle;Signal;HPM_P1;HPM_P2
2023/08/12 00:00:29;;;;;;;10.00;4.93;;;19.80;99.90;;;;;;5114579;27;20043;-62
2023/08/12 00:02:55;;;;;;;10.07;5.22;;;19.90;99.90;;;;;;5114440;28;20044;-60
2023/08/12 00:05:21;;;;;;;31.48;4.90;;;19.90;99.90;;;;;;5115806;28;20061;-62
2023/08/12 00:07:48;;;;;;;8.20;4.15;;;19.90;99.90;;;;;;5115688;28;20031;-62
2023/08/12 00:10:15;;;;;;;7.05;4.25;;;19.80;99.90;;;;;;5115699;28;20118;-62
2023/08/12 00:12:40;;;;;;;7.18;4.10;;;19.80;99.90;;;;;;5103596;27;20055;-62
2023/08/12 00:15:08;;;;;;;10.55;5.07;;;19.80;99.90;;;;;;5093943;28;21282;-60
2023/08/12 00:17:34;;;;;;;6.95;4.25;;;19.90;99.90;;;;;;5094963;28;20044;-62
2023/08/12 00:20:00;;;;;;;10.85;4.28;;;19.90;99.90;;;;;;5095034;28;20036;-60
2023/08/12 00:22:26;;;;;;;9.70;4.97;;;19.90;99.90;;;;;;5093852;28;20540;-61
2023/08/12 00:24:52;;;;;;;9.00;4.20;;;19.80;99.90;;;;;;5093420;28;20047;-61
2023/08/12 00:27:18;;;;;;;5.25;3.58;;;19.80;99.90;;;;;;5094717;28;20498;-61
2023/08/12 00:29:43;;;;;;;10.10;3.97;;;19.80;99.90;;;;;;5094691;28;20085;-61
2023/08/12 00:32:09;;;;;;;10.73;4.35;;;19.80;99.90;;;;;;5094556;28;20047;-61
2023/08/12 00:34:35;;;;;;;8.20;4.32;;;19.70;99.90;;;;;;5094917;28;20433;-62
2023/08/12 00:37:01;;;;;;;5.88;3.30;;;19.70;99.90;;;;;;5094580;28;20064;-61
2023/08/12 00:39:26;;;;;;;8.80;3.80;;;19.70;99.90;;;;;;5094729;28;20035;-61
2023/08/12 00:41:52;;;;;;;5.40;3.55;;;19.70;99.90;;;;;;5093719;28;20084;-62
2023/08/12 00:44:18;;;;;;;6.97;3.08;;;19.70;99.90;;;;;;5092474;28;20101;-61
2023/08/12 00:46:44;;;;;;;5.90;3.40;;;19.70;99.90;;;;;;5094666;28;20032;-60
2023/08/12 00:49:11;;;;;;;4.22;3.10;;;19.60;99.90;;;;;;5094475;28;20066;-61
2023/08/12 00:51:41;;;;;;;5.60;3.15;;;19.70;99.90;;;;;;5094478;28;20047;-61
2023/08/12 00:54:08;;;;;;;6.03;3.63;;;19.60;99.90;;;;;;5094726;28;20054;-60
2023/08/12 00:56:35;;;;;;;4.82;2.92;;;19.60;99.90;;;;;;5093197;28;20048;-61
2023/08/12 00:59:04;;;;;;;8.18;3.28;;;19.70;99.90;;;;;;5094282;28;20560;-61
2023/08/12 01:01:30;;;;;;;5.88;3.55;;;19.70;99.90;;;;;;5094440;28;20040;-61
2023/08/12 01:03:57;;;;;;;8.48;3.95;;;19.60;99.90;;;;;;5094486;28;20040;-61
2023/08/12 01:06:23;;;;;;;8.38;4.10;;;19.60;99.90;;;;;;5094339;28;20119;-60
2023/08/12 01:08:50;;;;;;;6.93;3.83;;;19.60;99.90;;;;;;5094378;28;20432;-61
2023/08/12 01:11:29;;;;;;;7.35;3.95;;;19.60;99.90;;;;;;5092813;28;20430;-61
2023/08/12 01:14:27;;;;;;;8.73;3.63;;;19.50;99.90;;;;;;5080747;28;20054;-62
2023/08/12 01:16:58;;;;;;;4.55;3.00;;;19.50;99.90;;;;;;5097390;28;20537;-61
2023/08/12 01:19:35;;;;;;;17.80;4.00;;;19.50;99.90;;;;;;5114105;28;20118;-60
2023/08/12 01:22:03;;;;;;;6.95;3.58;;;19.40;99.90;;;;;;5113996;27;20422;-61
2023/08/12 01:24:41;;;;;;;6.77;3.63;;;19.40;99.90;;;;;;5114398;27;20043;-61
2023/08/12 01:27:09;;;;;;;8.75;3.95;;;19.40;99.90;;;;;;5113878;28;20293;-62
2023/08/12 01:29:45;;;;;;;8.60;3.83;;;19.40;99.90;;;;;;5112666;28;20039;-61
2023/08/12 01:32:41;;;;;;;6.65;4.00;;;19.40;99.90;;;;;;5114034;28;20036;-61
2023/08/12 01:35:17;;;;;;;7.30;3.78;;;19.30;99.90;;;;;;5092974;28;20046;-61
2023/08/12 01:37:47;;;;;;;8.35;3.58;;;19.30;99.90;;;;;;5113747;28;20075;-62
2023/08/12 01:40:15;;;;;;;7.53;3.88;;;19.30;99.90;;;;;;5113882;28;20129;-61
2023/08/12 01:42:41;;;;;;;10.73;4.82;;;19.30;99.90;;;;;;5113959;28;20044;-61
2023/08/12 01:45:07;;;;;;;8.25;4.55;;;19.30;99.90;;;;;;5114213;28;20442;-61
2023/08/12 01:47:33;;;;;;;7.93;5.22;;;19.30;99.90;;;;;;5113906;28;20035;-61
2023/08/12 01:49:59;;;;;;;9.10;4.47;;;19.20;99.90;;;;;;5113599;28;20500;-62
2023/08/12 01:52:24;;;;;;;8.52;5.13;;;19.20;99.90;;;;;;5113666;28;20040;-61
2023/08/12 01:54:51;;;;;;;9.95;4.70;;;19.20;99.90;;;;;;5113408;28;20039;-61
2023/08/12 01:57:16;;;;;;;11.93;5.15;;;19.10;99.90;;;;;;5112032;28;20043;-61
2023/08/12 01:59:43;;;;;;;8.43;4.65;;;19.10;99.90;;;;;;5113428;28;20397;-59
2023/08/12 02:02:10;;;;;;;7.68;4.50;;;19.20;99.90;;;;;;5113755;28;20043;-61
2023/08/12 02:04:37;;;;;;;9.15;4.90;;;19.20;99.90;;;;;;5113412;28;20035;-60
2023/08/12 02:07:03;;;;;;;12.25;5.13;;;19.20;99.90;;;;;;5113475;28;20035;-60
2023/08/12 02:09:30;;;;;;;8.70;5.03;;;19.10;99.90;;;;;;5113550;28;20409;-59
2023/08/12 02:11:56;;;;;;;7.20;4.88;;;19.10;99.90;;;;;;5108377;28;20074;-60
2023/08/12 02:14:22;;;;;;;6.50;3.72;;;19.10;99.90;;;;;;5093202;28;20063;-60
2023/08/12 02:16:47;;;;;;;5.72;4.35;;;19.10;99.90;;;;;;5091349;28;20100;-60
2023/08/12 02:19:13;;;;;;;6.47;4.55;;;19.00;99.90;;;;;;5092918;28;20412;-60
2023/08/12 02:21:38;;;;;;;8.70;5.32;;;19.00;99.90;;;;;;5092826;28;20115;-60
2023/08/12 02:24:04;;;;;;;8.27;4.65;;;19.00;99.90;;;;;;5093114;28;20116;-60
2023/08/12 02:26:30;;;;;;;10.65;5.97;;;19.00;99.90;;;;;;5092569;28;20079;-60
2023/08/12 02:28:56;;;;;;;7.70;5.25;;;19.00;99.90;;;;;;5092503;28;20050;-59
2023/08/12 02:31:22;;;;;;;10.65;5.68;;;19.00;99.90;;;;;;5092694;28;20134;-60
2023/08/12 02:33:49;;;;;;;10.15;5.88;;;18.90;99.90;;;;;;5092579;28;20470;-61
2023/08/12 02:36:15;;;;;;;10.52;5.75;;;18.90;99.90;;;;;;5092487;28;20045;-61
2023/08/12 02:38:40;;;;;;;11.18;5.65;;;18.90;99.90;;;;;;5091046;28;20044;-61
2023/08/12 02:41:06;;;;;;;9.85;5.70;;;18.90;99.90;;;;;;5091100;28;20028;-62
2023/08/12 02:43:31;;;;;;;8.05;5.75;;;19.00;99.90;;;;;;5091343;28;20181;-61
2023/08/12 02:45:57;;;;;;;8.70;5.97;;;18.90;99.90;;;;;;5091302;28;20033;-61
2023/08/12 02:48:23;;;;;;;9.05;6.00;;;19.00;99.90;;;;;;5106032;27;20466;-61
2023/08/12 02:50:48;;;;;;;8.90;5.55;;;19.00;99.90;;;;;;5088877;28;20032;-61
2023/08/12 02:53:15;;;;;;;7.60;6.22;;;18.90;99.90;;;;;;5092153;28;20044;-61
2023/08/12 02:55:41;;;;;;;10.20;6.72;;;19.00;99.90;;;;;;5091949;28;20532;-61
2023/08/12 02:58:10;;;;;;;8.65;5.65;;;18.90;99.90;;;;;;5092345;28;20040;-61
2023/08/12 03:00:35;;;;;;;8.32;6.32;;;18.90;99.90;;;;;;5091117;28;20071;-61
2023/08/12 03:03:01;;;;;;;11.60;6.57;;;19.00;99.90;;;;;;5091905;28;20529;-60
2023/08/12 03:05:27;;;;;;;7.18;5.70;;;18.90;99.90;;;;;;5092032;28;20036;-60
2023/08/12 03:07:52;;;;;;;8.15;6.07;;;19.00;99.90;;;;;;5090224;28;20036;-61
2023/08/12 03:10:18;;;;;;;11.32;6.68;;;18.90;99.90;;;;;;5091861;28;20062;-61
2023/08/12 03:12:44;;;;;;;10.70;6.32;;;18.90;99.90;;;;;;5092066;28;20036;-60
2023/08/12 03:15:10;;;;;;;24.10;6.15;;;18.90;99.90;;;;;;5092249;28;20159;-61
2023/08/12 03:17:38;;;;;;;8.05;5.97;;;18.90;99.90;;;;;;5090611;28;20044;-60
2023/08/12 03:20:05;;;;;;;8.60;6.00;;;18.90;99.90;;;;;;5091982;28;20130;-60
2023/08/12 03:22:31;;;;;;;10.35;6.68;;;18.90;99.90;;;;;;5092001;28;20742;-60
2023/08/12 03:24:57;;;;;;;11.10;6.82;;;18.80;99.90;;;;;;5091900;28;20032;-61
2023/08/12 03:27:22;;;;;;;11.38;6.85;;;18.80;99.90;;;;;;5090254;28;20098;-61
2023/08/12 03:29:48;;;;;;;9.65;7.03;;;18.80;99.90;;;;;;5091810;28;20047;-60
2023/08/12 03:32:13;;;;;;;8.98;6.97;;;18.80;99.90;;;;;;5091657;28;20509;-60
2023/08/12 03:34:39;;;;;;;12.90;7.88;;;18.80;99.90;;;;;;5091518;28;20040;-61
2023/08/12 03:37:05;;;;;;;12.00;6.90;;;18.80;99.90;;;;;;5099938;28;20047;-60
2023/08/12 03:39:30;;;;;;;9.48;7.35;;;18.80;99.90;;;;;;5112090;28;20043;-60
2023/08/12 03:41:56;;;;;;;11.07;6.95;;;18.90;99.90;;;;;;5111942;28;20172;-61
2023/08/12 03:44:22;;;;;;;10.00;7.10;;;18.90;99.90;;;;;;5112001;28;20039;-61
2023/08/12 03:46:48;;;;;;;10.35;7.35;;;19.00;99.90;;;;;;5110591;28;20048;-60
2023/08/12 03:49:13;;;;;;;10.27;6.97;;;19.00;99.90;;;;;;5111653;28;20044;-61
2023/08/12 03:51:39;;;;;;;9.30;7.32;;;18.90;99.90;;;;;;5111687;28;20048;-60
2023/08/12 03:54:05;;;;;;;11.68;7.35;;;19.00;99.90;;;;;;5104401;28;20028;-61
2023/08/12 03:56:30;;;;;;;11.90;8.02;;;19.00;99.90;;;;;;5091553;28;20052;-60
2023/08/12 03:58:56;;;;;;;12.90;7.35;;;19.00;99.90;;;;;;5091128;28;20107;-61
2023/08/12 04:01:22;;;;;;;10.18;7.20;;;19.00;99.90;;;;;;5091714;28;20475;-61
2023/08/12 04:03:47;;;;;;;11.93;7.63;;;19.00;99.90;;;;;;5091108;28;20036;-62
2023/08/12 04:06:13;;;;;;;10.48;7.63;;;19.10;99.90;;;;;;5090256;28;20050;-61
2023/08/12 04:08:39;;;;;;;12.07;8.32;;;19.10;99.90;;;;;;5091052;28;20039;-61
2023/08/12 04:11:04;;;;;;;12.60;8.00;;;19.20;99.90;;;;;;5091464;28;20424;-61
2023/08/12 04:13:30;;;;;;;11.80;7.75;;;19.10;99.90;;;;;;5091285;28;20394;-60
2023/08/12 04:15:56;;;;;;;11.10;8.40;;;19.20;99.90;;;;;;5091280;28;20036;-61
2023/08/12 04:18:22;;;;;;;16.45;10.15;;;19.20;99.90;;;;;;5091543;28;20044;-60
2023/08/12 04:20:51;;;;;;;13.32;8.75;;;19.20;99.90;;;;;;5094929;28;20038;-60
2023/08/12 04:23:17;;;;;;;10.20;7.78;;;19.20;99.90;;;;;;5095230;28;20043;-59
2023/08/12 04:25:44;;;;;;;15.93;8.65;;;19.10;99.90;;;;;;5093471;28;20036;-60
2023/08/12 04:28:11;;;;;;;16.67;9.93;;;19.20;99.90;;;;;;5095204;28;20390;-60
2023/08/12 04:30:52;;;;;;;12.30;8.95;;;19.30;99.90;;;;;;5095139;28;20040;-60
2023/08/12 04:33:19;;;;;;;12.18;8.38;;;19.20;99.90;;;;;;5094995;28;20077;-61
2023/08/12 04:35:45;;;;;;;15.07;9.48;;;19.20;99.90;;;;;;5094600;28;20040;-62
2023/08/12 04:38:11;;;;;;;12.07;8.32;;;19.20;99.90;;;;;;5094993;28;20048;-59
2023/08/12 04:40:41;;;;;;;19.58;11.15;;;19.30;99.90;;;;;;5095060;28;20035;-60
2023/08/12 04:43:08;;;;;;;15.60;9.48;;;19.30;99.90;;;;;;5094530;28;20031;-59
2023/08/12 04:45:34;;;;;;;15.57;9.50;;;19.30;99.90;;;;;;5094707;28;20111;-60
2023/08/12 04:48:00;;;;;;;12.90;9.13;;;19.30;99.90;;;;;;5110000;28;20123;-59
2023/08/12 04:50:29;;;;;;;13.90;10.43;;;19.30;99.90;;;;;;5114054;27;20047;-60
2023/08/12 04:52:55;;;;;;;13.43;9.00;;;19.20;99.90;;;;;;5115128;28;20042;-59
2023/08/12 04:55:20;;;;;;;15.85;9.05;;;19.20;99.90;;;;;;5097081;28;20039;-60
2023/08/12 04:57:46;;;;;;;15.30;9.55;;;19.30;99.90;;;;;;5093572;28;20367;-60
2023/08/12 05:00:12;;;;;;;16.48;9.25;;;19.30;99.90;;;;;;5094395;28;20393;-60
2023/08/12 05:02:38;;;;;;;12.48;8.45;;;19.30;99.90;;;;;;5094514;28;20486;-60
2023/08/12 05:05:04;;;;;;;15.90;9.40;;;19.20;99.90;;;;;;5094865;28;20051;-60
2023/08/12 05:07:31;;;;;;;11.57;9.10;;;19.30;99.90;;;;;;5094277;28;20655;-60
2023/08/12 05:09:57;;;;;;;11.70;8.52;;;19.30;99.90;;;;;;5094702;28;20111;-60
2023/08/12 05:12:22;;;;;;;13.70;9.38;;;19.30;99.90;;;;;;5094246;28;20111;-59
2023/08/12 05:14:48;;;;;;;14.60;9.45;;;19.30;99.90;;;;;;5094263;28;20039;-59
2023/08/12 05:17:14;;;;;;;16.50;9.10;;;19.30;99.90;;;;;;5093657;28;20036;-60
2023/08/12 05:19:39;;;;;;;10.30;9.07;;;19.30;99.90;;;;;;5092966;28;20039;-60
2023/08/12 05:22:05;;;;;;;13.60;8.75;;;19.30;99.90;;;;;;5094137;28;20032;-59
2023/08/12 05:24:30;;;;;;;11.23;8.38;;;19.40;99.90;;;;;;5094089;28;20036;-61
2023/08/12 05:26:56;;;;;;;15.75;9.63;;;19.50;99.90;;;;;;5093897;28;20083;-61
2023/08/12 05:29:22;;;;;;;10.95;8.88;;;19.50;99.90;;;;;;5092847;28;20047;-60
2023/08/12 05:31:47;;;;;;;15.40;9.35;;;19.60;99.90;;;;;;5093286;28;20036;-59
2023/08/12 05:34:13;;;;;;;13.63;8.98;;;19.70;99.90;;;;;;5093535;28;20047;-59
2023/08/12 05:36:39;;;;;;;15.98;10.13;;;19.70;99.90;;;;;;5093847;28;20050;-59
2023/08/12 05:39:04;;;;;;;16.42;8.77;;;19.70;99.90;;;;;;5093870;28;20040;-60
2023/08/12 05:41:30;;;;;;;14.43;9.43;;;19.80;99.90;;;;;;5093440;28;20394;-61
2023/08/12 05:43:55;;;;;;;10.88;8.50;;;19.80;99.90;;;;;;5093861;28;20040;-59
2023/08/12 05:46:21;;;;;;;14.32;9.00;;;19.90;99.90;;;;;;5093921;28;20047;-60
2023/08/12 05:48:47;;;;;;;14.00;8.93;;;20.00;99.90;;;;;;5093905;28;20068;-60
2023/08/12 05:51:12;;;;;;;13.07;8.98;;;19.90;99.90;;;;;;5093411;28;20421;-60
2023/08/12 05:53:38;;;;;;;11.82;8.68;;;20.00;99.90;;;;;;5093265;28;20054;-59
2023/08/12 05:56:04;;;;;;;12.13;8.50;;;19.90;99.90;;;;;;5093369;28;20047;-60
2023/08/12 05:58:30;;;;;;;11.52;8.38;;;20.00;99.90;;;;;;5098810;28;20350;-60
2023/08/12 06:00:55;;;;;;;18.27;10.02;;;20.00;99.90;;;;;;5113600;28;20115;-60
2023/08/12 06:03:21;;;;;;;10.85;9.75;;;20.00;99.90;;;;;;5113486;28;20043;-59
2023/08/12 06:05:47;;;;;;;15.23;9.30;;;20.00;99.90;;;;;;5113562;28;20526;-60
2023/08/12 06:08:13;;;;;;;12.77;9.90;;;20.00;99.90;;;;;;5113722;28;20040;-59
2023/08/12 06:10:39;;;;;;;15.18;10.00;;;20.10;99.90;;;;;;5111227;27;20043;-60
2023/08/12 06:13:05;;;;;;;15.02;8.50;;;20.20;99.90;;;;;;5112791;28;20036;-60
2023/08/12 06:15:31;;;;;;;14.68;9.18;;;20.20;99.90;;;;;;5112097;28;20126;-59
2023/08/12 06:17:57;;;;;;;15.25;9.48;;;20.30;99.90;;;;;;5112977;28;20039;-60
2023/08/12 06:20:23;;;;;;;13.30;9.18;;;20.30;99.90;;;;;;5113403;28;20061;-61
2023/08/12 06:22:50;;;;;;;17.95;10.80;;;20.30;99.90;;;;;;5113241;28;20038;-60
2023/08/12 06:25:16;;;;;;;15.38;10.15;;;20.30;99.90;;;;;;5113238;28;20067;-61
2023/08/12 06:27:42;;;;;;;14.35;10.02;;;20.30;99.90;;;;;;5112891;28;20156;-60
2023/08/12 06:30:08;;;;;;;17.33;10.05;;;20.40;99.90;;;;;;5113307;28;20043;-59
2023/08/12 06:32:34;;;;;;;14.73;9.82;;;20.30;99.90;;;;;;5113278;28;20043;-60
2023/08/12 06:35:00;;;;;;;15.20;10.30;;;20.30;99.90;;;;;;5113318;28;20142;-61
2023/08/12 06:37:26;;;;;;;14.82;9.98;;;20.30;99.90;;;;;;5112807;28;20458;-60
2023/08/12 06:39:51;;;;;;;17.38;10.45;;;20.40;99.90;;;;;;5112694;28;20039;-60
2023/08/12 06:42:17;;;;;;;18.55;10.88;;;20.40;99.90;;;;;;5105444;28;20397;-60
2023/08/12 06:44:43;;;;;;;19.75;10.70;;;20.40;99.90;;;;;;5106534;28;20031;-60
2023/08/12 06:47:08;;;;;;;19.80;10.23;;;20.40;99.90;;;;;;5111661;28;20071;-60
2023/08/12 06:49:34;;;;;;;24.13;11.07;;;20.40;99.90;;;;;;5112854;28;20031;-59
2023/08/12 06:52:00;;;;;;;15.13;11.10;;;20.40;99.90;;;;;;5112634;28;20545;-59
2023/08/12 06:54:25;;;;;;;15.68;10.65;;;20.40;99.90;;;;;;5102713;28;20386;-61
2023/08/12 06:56:51;;;;;;;17.15;10.80;;;20.50;99.90;;;;;;5092031;28;20502;-60
2023/08/12 06:59:17;;;;;;;19.92;10.68;;;20.30;99.90;;;;;;5092119;28;20111;-60
2023/08/12 07:01:43;;;;;;;16.58;11.15;;;20.30;99.90;;;;;;5091986;28;20046;-60
2023/08/12 07:04:08;;;;;;;19.05;10.95;;;20.40;99.90;;;;;;5092218;28;20028;-60
2023/08/12 07:06:34;;;;;;;19.73;11.07;;;20.50;99.90;;;;;;5092218;28;20044;-60
2023/08/12 07:09:00;;;;;;;16.30;10.45;;;20.40;99.90;;;;;;5090771;28;20486;-59
2023/08/12 07:11:25;;;;;;;15.07;11.13;;;20.50;99.90;;;;;;5093662;28;20506;-60
2023/08/12 07:13:51;;;;;;;20.55;11.50;;;20.40;99.90;;;;;;5112792;28;20059;-59
2023/08/12 07:16:17;;;;;;;18.92;11.05;;;20.40;99.90;;;;;;5112016;28;20043;-60
2023/08/12 07:18:42;;;;;;;17.35;10.43;;;20.40;99.90;;;;;;5112246;28;20035;-60
2023/08/12 07:21:08;;;;;;;18.33;12.45;;;20.40;99.90;;;;;;5112038;28;20370;-59
2023/08/12 07:23:34;;;;;;;17.40;12.35;;;20.50;99.90;;;;;;5112304;28;20370;-60
2023/08/12 07:25:59;;;;;;;19.85;13.57;;;20.50;99.90;;;;;;5110795;28;20052;-61
2023/08/12 07:28:25;;;;;;;19.10;12.13;;;20.50;99.90;;;;;;5112081;28;20039;-60
2023/08/12 07:30:52;;;;;;;18.75;11.90;;;20.60;99.90;;;;;;5108328;28;20035;-60
2023/08/12 07:33:18;;;;;;;23.35;13.25;;;20.60;99.90;;;;;;5102296;28;20401;-59
2023/08/12 07:35:43;;;;;;;20.05;12.95;;;20.60;99.90;;;;;;5112024;28;20036;-59
2023/08/12 07:38:09;;;;;;;22.58;13.13;;;20.70;99.90;;;;;;5112041;28;20101;-60
2023/08/12 07:40:35;;;;;;;26.17;14.73;;;20.60;99.90;;;;;;5110732;28;20027;-61
2023/08/12 07:43:00;;;;;;;19.80;13.65;;;20.70;99.90;;;;;;5111896;28;20055;-59
2023/08/12 07:45:26;;;;;;;23.90;14.45;;;20.80;99.90;;;;;;5110674;28;20032;-60
2023/08/12 07:47:51;;;;;;;24.40;14.35;;;20.80;99.90;;;;;;5112358;28;20036;-60
2023/08/12 07:50:18;;;;;;;20.30;14.30;;;20.70;99.90;;;;;;5111935;28;20036;-60
2023/08/12 07:52:43;;;;;;;26.90;14.88;;;20.70;99.90;;;;;;5108627;28;20096;-61
2023/08/12 07:55:09;;;;;;;21.55;13.80;;;20.70;99.90;;;;;;5099295;28;20143;-61
2023/08/12 07:57:35;;;;;;;25.38;14.63;;;20.70;99.90;;;;;;5094871;28;20607;-60
2023/08/12 08:00:00;;;;;;;21.92;14.73;;;20.70;99.90;;;;;;5094029;28;20039;-60
2023/08/12 08:02:26;;;;;;;23.20;14.00;;;20.70;99.90;;;;;;5095557;28;20375;-60
2023/08/12 08:04:51;;;;;;;20.25;13.60;;;20.70;99.90;;;;;;5095620;28;20409;-59
2023/08/12 08:07:17;;;;;;;22.65;15.70;;;20.70;99.90;;;;;;5093056;28;20474;-60
2023/08/12 08:09:43;;;;;;;26.25;15.82;;;20.70;99.90;;;;;;5095523;28;20047;-60
2023/08/12 08:12:10;;;;;;;18.15;14.57;;;20.70;99.90;;;;;;5110573;28;20047;-60
2023/08/12 08:14:36;;;;;;;26.38;15.02;;;20.70;99.90;;;;;;5107526;27;20071;-60
2023/08/12 08:17:02;;;;;;;26.42;15.95;;;20.80;99.90;;;;;;5111941;28;20039;-59
2023/08/12 08:19:27;;;;;;;19.70;14.60;;;20.70;99.90;;;;;;5108585;28;20038;-60
2023/08/12 08:21:53;;;;;;;22.10;14.73;;;20.80;99.90;;;;;;5111045;27;20111;-60
2023/08/12 08:24:18;;;;;;;26.48;15.95;;;20.70;99.90;;;;;;5096209;28;20366;-59
2023/08/12 08:26:46;;;;;;;19.77;14.15;;;20.80;99.90;;;;;;5076421;28;20139;-59
2023/08/12 08:29:12;;;;;;;22.03;15.27;;;20.90;99.90;;;;;;5104840;28;20623;-61
2023/08/12 08:31:38;;;;;;;23.27;15.63;;;20.80;99.90;;;;;;5111404;28;20377;-60
2023/08/12 08:34:04;;;;;;;22.83;15.35;;;20.90;99.90;;;;;;5099703;28;20118;-59
2023/08/12 08:36:30;;;;;;;25.40;15.27;;;20.90;99.90;;;;;;5098028;28;20055;-59
2023/08/12 08:38:56;;;;;;;23.73;15.57;;;20.90;99.90;;;;;;5099485;28;20040;-60
2023/08/12 08:41:22;;;;;;;24.63;15.60;;;21.00;99.90;;;;;;5103936;28;20035;-60
2023/08/12 08:43:54;;;;;;;22.27;15.30;;;20.90;99.90;;;;;;5102257;28;20114;-61
2023/08/12 08:46:21;;;;;;;18.40;13.73;;;21.00;99.90;;;;;;5094662;28;20044;-60
2023/08/12 08:48:48;;;;;;;22.60;15.40;;;21.00;99.90;;;;;;5094772;28;20040;-61
2023/08/12 08:51:14;;;;;;;19.02;15.50;;;20.90;99.90;;;;;;5094046;28;20561;-61
2023/08/12 08:53:41;;;;;;;21.55;14.90;;;20.90;99.90;;;;;;5094531;28;20474;-61
2023/08/12 08:56:08;;;;;;;21.98;14.88;;;20.90;99.90;;;;;;5093530;28;20508;-60
2023/08/12 08:58:34;;;;;;;23.13;14.60;;;20.90;99.90;;;;;;5092898;28;20044;-60
2023/08/12 09:01:01;;;;;;;21.60;14.75;;;20.80;99.90;;;;;;5093350;28;20371;-60
2023/08/12 09:03:27;;;;;;;25.63;16.58;;;20.80;99.90;;;;;;5093095;28;20040;-60
2023/08/12 09:05:55;;;;;;;22.40;14.55;;;20.80;99.90;;;;;;5092341;28;20048;-60
2023/08/12 09:08:22;;;;;;;30.83;17.45;;;20.80;99.90;;;;;;5092932;28;20080;-59
2023/08/12 09:10:48;;;;;;;28.05;17.52;;;20.80;99.90;;;;;;5093128;28;20035;-60
2023/08/12 09:13:14;;;;;;;29.67;18.38;;;20.80;99.90;;;;;;5093402;28;20048;-60
2023/08/12 09:15:40;;;;;;;27.05;18.05;;;20.70;99.90;;;;;;5093300;28;20052;-59
2023/08/12 09:18:06;;;;;;;26.00;17.60;;;20.80;99.90;;;;;;5094332;28;20044;-59
2023/08/12 09:20:35;;;;;;;27.85;17.35;;;20.70;99.90;;;;;;5094416;28;20105;-59
2023/08/12 09:23:02;;;;;;;30.55;17.33;;;20.70;99.90;;;;;;5095233;28;20040;-61
2023/08/12 09:25:29;;;;;;;28.02;18.98;;;20.70;99.90;;;;;;5094270;28;20077;-60
2023/08/12 09:28:01;;;;;;;36.88;20.52;;;20.60;99.90;;;;;;5094198;28;20064;-61
2023/08/12 09:30:33;;;;;;;25.25;18.83;;;20.70;99.90;;;;;;5094398;28;20063;-60
2023/08/12 09:33:07;;;;;;;30.00;19.80;;;20.60;99.90;;;;;;5094041;28;20032;-60
2023/08/12 09:35:40;;;;;;;26.33;19.55;;;20.70;99.90;;;;;;5093212;28;20052;-61
2023/08/12 09:38:15;;;;;;;31.30;19.98;;;20.70;99.90;;;;;;5094271;28;20043;-60
2023/08/12 09:40:41;;;;;;;31.17;19.23;;;20.70;99.90;;;;;;5094352;28;20588;-59
2023/08/12 09:43:07;;;;;;;27.08;18.50;;;20.70;99.90;;;;;;5092912;28;20036;-60
2023/08/12 09:45:34;;;;;;;28.42;19.90;;;20.70;99.90;;;;;;5094388;28;20561;-59
2023/08/12 09:48:00;;;;;;;29.95;20.55;;;20.80;99.90;;;;;;5094265;28;20051;-61
2023/08/12 09:50:26;;;;;;;26.05;19.67;;;20.70;99.90;;;;;;5094243;28;20459;-61
2023/08/12 09:52:54;;;;;;;33.13;20.85;;;20.90;99.90;;;;;;5094186;28;20090;-61
2023/08/12 09:55:22;;;;;;;30.42;19.88;;;20.90;99.90;;;;;;5093841;28;20485;-60
2023/08/12 09:57:52;;;;;;;29.38;19.05;;;20.80;99.90;;;;;;5093822;28;20035;-60
2023/08/12 10:00:20;;;;;;;25.15;20.23;;;20.90;99.90;;;;;;5093926;28;20402;-60
2023/08/12 10:02:48;;;;;;;33.08;21.20;;;20.90;99.90;;;;;;5094136;28;20059;-59
2023/08/12 10:05:21;;;;;;;31.73;21.43;;;21.00;99.90;;;;;;5093931;28;20032;-60
2023/08/12 10:07:48;;;;;;;30.05;21.23;;;20.90;99.90;;;;;;5094163;28;20039;-60
2023/08/12 10:10:14;;;;;;;28.98;21.20;;;21.00;99.90;;;;;;5093817;28;20076;-61
2023/08/12 10:12:41;;;;;;;33.35;21.67;;;20.90;99.90;;;;;;5096493;28;20181;-61
2023/08/12 10:15:08;;;;;;;27.38;19.67;;;21.00;99.90;;;;;;5113923;28;20050;-61
2023/08/12 10:17:35;;;;;;;24.58;18.95;;;20.90;99.90;;;;;;5113544;28;20040;-60
2023/08/12 10:20:04;;;;;;;25.38;19.40;;;20.80;99.90;;;;;;5114475;28;20035;-61
2023/08/12 10:22:30;;;;;;;24.67;18.77;;;20.70;99.90;;;;;;5113059;28;20028;-62
2023/08/12 10:25:02;;;;;;;29.25;20.23;;;20.90;99.90;;;;;;5114273;28;20024;-62
2023/08/12 10:27:28;;;;;;;29.63;19.80;;;20.90;99.90;;;;;;5107807;28;20104;-62
2023/08/12 10:29:59;;;;;;;23.85;17.95;;;20.90;99.90;;;;;;5113664;28;20489;-63
2023/08/12 10:32:26;;;;;;;31.13;17.88;;;20.80;99.90;;;;;;5113614;28;20038;-62
2023/08/12 10:34:56;;;;;;;24.15;17.55;;;20.90;99.90;;;;;;5113650;28;20114;-62
2023/08/12 10:37:27;;;;;;;20.73;13.38;;;20.80;99.90;;;;;;5103263;28;20040;-61
2023/08/12 10:39:55;;;;;;;17.55;10.48;;;20.70;99.90;;;;;;5109191;28;20031;-61
2023/08/12 10:42:41;;;;;;;12.90;8.68;;;20.60;99.90;;;;;;5112912;28;20085;-61
2023/08/12 10:45:07;;;;;;;13.80;9.23;;;20.60;99.90;;;;;;5112808;28;20039;-61
2023/08/12 10:47:34;;;;;;;10.90;6.97;;;20.70;99.90;;;;;;5112761;28;20066;-61
2023/08/12 10:50:01;;;;;;;9.98;5.95;;;20.50;99.90;;;;;;5111449;27;20043;-61
2023/08/12 10:52:33;;;;;;;7.47;5.68;;;20.40;99.90;;;;;;5111739;27;20109;-62
2023/08/12 10:55:24;;;;;;;7.90;5.55;;;20.30;99.90;;;;;;5096449;28;20051;-62
2023/08/12 10:57:53;;;;;;;9.55;4.07;;;20.40;99.90;;;;;;5081889;28;20505;-63
2023/08/12 11:00:26;;;;;;;6.68;3.42;;;20.30;99.90;;;;;;5092392;28;20676;-61
2023/08/12 11:02:55;;;;;;;8.40;3.75;;;20.30;99.90;;;;;;5092311;28;20060;-61
2023/08/12 11:05:22;;;;;;;5.85;3.90;;;20.40;99.90;;;;;;5091927;28;20036;-61
2023/08/12 11:08:09;;;;;;;6.90;4.00;;;20.20;99.90;;;;;;5091069;28;20119;-60
2023/08/12 11:10:35;;;;;;;5.60;3.80;;;20.40;99.90;;;;;;5091970;28;20047;-60
2023/08/12 11:13:02;;;;;;;8.25;4.30;;;20.50;99.90;;;;;;5092102;28;20456;-61
2023/08/12 11:15:34;;;;;;;5.75;3.83;;;20.40;99.90;;;;;;5090512;28;20046;-61
2023/08/12 11:18:03;;;;;;;8.45;3.83;;;20.50;99.90;;;;;;5092087;28;20039;-61
2023/08/12 11:20:32;;;;;;;5.57;3.95;;;20.50;99.90;;;;;;5092097;28;20044;-61
2023/08/12 11:22:59;;;;;;;5.63;3.60;;;20.50;99.90;;;;;;5092334;28;20116;-61
2023/08/12 11:25:25;;;;;;;6.55;3.65;;;20.60;99.90;;;;;;5092164;28;20042;-61
2023/08/12 11:27:51;;;;;;;5.32;3.10;;;20.50;99.90;;;;;;5091777;28;20040;-60
2023/08/12 11:30:22;;;;;;;6.75;3.72;;;20.50;99.90;;;;;;5091762;28;20570;-60
2023/08/12 11:32:49;;;;;;;6.47;3.55;;;20.60;99.90;;;;;;5103789;28;20551;-60
2023/08/12 11:35:16;;;;;;;3.42;2.33;;;20.80;99.90;;;;;;5112417;28;20454;-60
2023/08/12 11:37:47;;;;;;;3.53;2.17;;;20.90;99.90;;;;;;5112226;28;20069;-60
2023/08/12 11:40:17;;;;;;;4.85;2.38;;;20.80;99.90;;;;;;5112595;28;20066;-61
2023/08/12 11:42:45;;;;;;;5.50;2.55;;;20.90;99.90;;;;;;5112313;28;20042;-60
2023/08/12 11:45:11;;;;;;;2.38;1.50;;;20.80;99.90;;;;;;5112275;28;20385;-61
2023/08/12 11:47:39;;;;;;;4.07;1.60;;;20.90;99.90;;;;;;5112197;28;20092;-62
2023/08/12 11:50:06;;;;;;;3.60;1.13;;;20.80;99.90;;;;;;5100652;28;20045;-61
2023/08/12 11:52:32;;;;;;;5.05;1.58;;;20.70;99.90;;;;;;5111975;28;20282;-62
2023/08/12 11:54:58;;;;;;;3.92;2.10;;;20.60;99.90;;;;;;5096484;28;20101;-62
2023/08/12 11:57:26;;;;;;;5.15;2.47;;;20.30;99.90;;;;;;5091522;28;20047;-62
2023/08/12 11:59:51;;;;;;;4.13;2.10;;;20.20;99.90;;;;;;5092192;28;20039;-62
2023/08/12 12:02:17;;;;;;;4.50;2.50;;;20.00;99.90;;;;;;5091557;28;20445;-60
2023/08/12 12:04:43;;;;;;;8.18;2.72;;;19.80;99.90;;;;;;5092217;28;20037;-61
2023/08/12 12:07:19;;;;;;;6.20;2.95;;;19.70;99.90;;;;;;5091726;28;20587;-62
2023/08/12 12:09:45;;;;;;;7.93;2.60;;;19.60;99.90;;;;;;5091739;28;20031;-61
2023/08/12 12:12:11;;;;;;;7.53;2.72;;;19.50;99.90;;;;;;5091332;28;20566;-61
2023/08/12 12:14:36;;;;;;;6.18;2.83;;;19.50;99.90;;;;;;5090341;28;20119;-61
2023/08/12 12:17:09;;;;;;;6.07;2.80;;;19.40;99.90;;;;;;5091116;28;20040;-62
2023/08/12 12:19:34;;;;;;;8.02;3.33;;;19.50;99.90;;;;;;5082941;28;20051;-62
2023/08/12 12:22:04;;;;;;;6.13;2.67;;;19.40;99.90;;;;;;5091231;28;20486;-62
2023/08/12 12:24:30;;;;;;;6.80;2.65;;;19.40;99.90;;;;;;5090011;28;20044;-60
2023/08/12 12:26:56;;;;;;;6.03;1.92;;;19.40;99.90;;;;;;5090959;28;20063;-60
2023/08/12 12:29:23;;;;;;;7.78;1.80;;;19.30;99.90;;;;;;5091356;28;20104;-61
2023/08/12 12:31:48;;;;;;;5.78;2.10;;;19.30;99.90;;;;;;5090995;28;20043;-61
2023/08/12 12:34:14;;;;;;;5.65;2.45;;;19.20;99.90;;;;;;5091027;28;20044;-61